Terminal Aerodrome Forecast
Issued by NWS

Current Version | Previous Version | Graphics & Text | Print | Product List | Glossary On
Versions: 1 2 3 4 5 6 7 8 9 10 11 12 13 14 15 16 17 18 19 20 21 22
000
FTUS41 KILN 220500
TAFLCK
TAF
KLCK 220534Z 2206/2306 08003KT P6SM SCT250
      TEMPO 2207/2209 5SM BR
     FM221400 12006KT P6SM SCT015 BKN040
     FM221800 11007KT P6SM SCT040 BKN150
     FM230500 12007KT P6SM VCSH SCT015 BKN040=

USA.gov is the U.S. government's official web portal to all federal, state and local government web resources and services.